This demonstration page uses our WeatherBlox Daily Observations layout. Learn more.

Hourly Observations for June 9, 2017

Temp ( °F °C ) Dew Point ( °F °C ) Humidity (%) Winds ( mph kmh ) Pressure ( in mb ) Visibility ( mi km ) Precip ( " mm )
12:54 am 00:54 Clear 72 22.2 54 12.2 53 53 SSW 9 15 29.83 1010 10 16.0934 0 0
1:54 am 01:54 Clear 71 21.7 54 12.2 55 55 SSW 9 15 29.81 1010 10 16.0934 0 0
2:54 am 02:54 Clear 65 18.3 54 12.2 68 68 S 7 11 29.8 1009 10 16.0934 0 0
3:54 am 03:54 Clear 65 18.3 55 12.8 70 70 S 5 7 29.8 1009 10 16.0934 0 0
4:54 am 04:54 Clear 63 17.2 55 12.8 76 76 S 5 7 29.8 1009 10 16.0934 0 0
5:54 am 05:54 Clear 62 16.7 56 13.3 80 80 SSE 3 6 29.81 1010 10 16.0934 0 0
6:54 am 06:54 Sunny 63 17.2 57 13.9 81 81 S 3 6 29.83 1010 10 16.0934 0 0
7:54 am 07:54 Sunny 70 21.1 59 15 68 68 SW 5 7 29.84 1011 10 16.0934 0 0
8:54 am 08:54 Sunny 76 24.4 56 13.3 50 50 SW 16 26 29.84 1010 10 16.0934 0 0
9:54 am 09:54 Sunny 80 26.7 55 12.8 42 42 SW 15 24 29.83 1010 10 16.0934 0 0
10:54 am 10:54 Sunny 83 28.3 56 13.3 40 40 SSW 16 26 29.82 1010 10 16.0934 0 0
11:54 am 11:54 Sunny 86 30 58 14.4 39 39 SSW 15 24 29.8 1009 10 16.0934 0 0
12:54 pm 12:54 Sunny 87 30.6 57 13.9 36 36 SSW 20 31 29.78 1009 10 16.0934 0 0
1:54 pm 13:54 Sunny 90 32.2 56 13.3 32 32 SW 14 22 29.75 1008 10 16.0934 0 0
2:54 pm 14:54 Sunny 89 31.7 58 14.4 35 35 S 21 33 29.73 1007 10 16.0934 0 0
3:54 pm 15:54 Sunny 90 32.2 59 15 35 35 S 14 22 29.71 1006 10 16.0934 0 0
4:54 pm 16:54 Sunny 91 32.8 57 13.9 32 32 SSW 15 24 29.7 1006 10 16.0934 0 0
5:54 pm 17:54 Sunny 89 31.7 58 14.4 35 35 S 20 31 29.67 1005 10 16.0934 0 0
6:54 pm 18:54 Sunny 88 31.1 59 15 38 38 S 16 26 29.66 1004 10 16.0934 0 0
7:54 pm 19:54 Sunny 85 29.4 60 15.6 43 43 S 16 26 29.66 1004 10 16.0934 0 0
8:54 pm 20:54 Sunny 81 27.2 60 15.6 49 49 S 16 26 29.66 1005 10 16.0934 0 0
9:54 pm 21:54 Clear 80 26.7 60 15.6 51 51 S 15 24 29.66 1004 10 16.0934 0 0
10:54 pm 22:54 Clear 78 25.6 61 16.1 56 56 S 15 24 29.66 1004 10 16.0934 0 0
11:54 pm 23:54 Clear 77 25 62 16.7 60 60 S 18 30 29.64 1004 10 16.0934 0 0

Powered by AerisWeather